Time;durP1;ratioP1;P1;durP2;ratioP2;P2;SDS_P1;SDS_P2;PMS_P1;PMS_P2;Temp;Humidity;BMP_temperature;BMP_pressure;BME280_temperature;BME280_humidity;BME280_pressure;Samples;Min_cycle;Max_cycle;Signal;HPM_P1;HPM_P2
2021/10/18 00:01:13;;;;;;;9.82;4.90;;;21.60;51.10;;;;;;5017195;28;88760;-77
2021/10/18 00:03:41;;;;;;;5.90;4.00;;;21.60;51.00;;;;;;5018154;28;89110;-77
2021/10/18 00:06:08;;;;;;;8.27;4.78;;;21.60;50.80;;;;;;5018391;28;88006;-78
2021/10/18 00:08:35;;;;;;;6.78;4.78;;;21.60;51.50;;;;;;5017933;28;88241;-77
2021/10/18 00:11:01;;;;;;;5.63;3.72;;;21.60;51.60;;;;;;5016671;28;89494;-77
2021/10/18 00:13:49;;;;;;;3.90;3.50;;;21.70;52.20;;;;;;5018508;28;87389;-77
2021/10/18 00:16:16;;;;;;;5.10;4.57;;;21.60;52.50;;;;;;5016535;28;88374;-78
2021/10/18 00:18:43;;;;;;;6.72;4.88;;;21.60;52.60;;;;;;5016883;28;103832;-77
2021/10/18 00:21:11;;;;;;;6.18;4.50;;;21.60;52.50;;;;;;5016012;28;92129;-77
2021/10/18 00:23:38;;;;;;;6.03;4.40;;;21.60;52.40;;;;;;4999646;28;92486;-77
2021/10/18 00:26:04;;;;;;;6.78;5.07;;;21.60;52.40;;;;;;5016870;28;88490;-77
2021/10/18 00:28:32;;;;;;;6.88;5.95;;;21.60;52.10;;;;;;5017099;28;87964;-77
2021/10/18 00:30:59;;;;;;;8.77;5.95;;;21.60;51.60;;;;;;5016740;28;88994;-77
2021/10/18 00:33:26;;;;;;;6.80;5.45;;;21.60;51.30;;;;;;5017650;28;88306;-77
2021/10/18 00:35:53;;;;;;;9.45;4.97;;;21.60;51.00;;;;;;5017593;28;88157;-78
2021/10/18 00:38:20;;;;;;;8.07;4.95;;;21.60;50.80;;;;;;5017113;28;108364;-78
2021/10/18 00:40:47;;;;;;;6.00;4.85;;;21.60;50.70;;;;;;5016045;28;88550;-78
2021/10/18 00:43:14;;;;;;;9.40;5.22;;;21.60;51.10;;;;;;5015583;28;88413;-78
2021/10/18 00:45:41;;;;;;;7.13;5.32;;;21.60;51.40;;;;;;5013582;28;89206;-78
2021/10/18 00:48:08;;;;;;;6.47;5.18;;;21.60;51.50;;;;;;4998633;28;89488;-78
2021/10/18 00:50:35;;;;;;;5.40;4.90;;;21.60;51.30;;;;;;5014805;28;88732;-78
2021/10/18 00:53:02;;;;;;;7.72;4.63;;;21.60;51.40;;;;;;5016152;28;88455;-78
2021/10/18 00:55:29;;;;;;;6.82;5.65;;;21.60;51.30;;;;;;5014841;28;91814;-78
2021/10/18 00:57:56;;;;;;;7.00;5.80;;;21.60;51.60;;;;;;5016437;28;87956;-78
2021/10/18 01:00:23;;;;;;;6.32;5.07;;;21.60;51.50;;;;;;5017720;28;95365;-78
2021/10/18 01:02:50;;;;;;;8.10;5.40;;;21.60;51.20;;;;;;5018463;28;88600;-78
2021/10/18 01:05:18;;;;;;;5.35;4.85;;;21.60;51.10;;;;;;4999667;28;89425;-78
2021/10/18 01:07:46;;;;;;;7.30;6.03;;;21.60;50.90;;;;;;5017655;28;88073;-77
2021/10/18 01:10:13;;;;;;;7.90;6.80;;;21.60;51.10;;;;;;5017313;28;89568;-76
2021/10/18 01:12:40;;;;;;;8.27;5.68;;;21.60;50.90;;;;;;5015789;28;95482;-76
2021/10/18 01:15:07;;;;;;;7.10;5.50;;;21.60;51.10;;;;;;5017243;28;88415;-76
2021/10/18 01:17:34;;;;;;;7.15;5.75;;;21.50;51.30;;;;;;5015806;28;88101;-78
2021/10/18 01:20:01;;;;;;;6.63;5.95;;;21.60;51.60;;;;;;5016678;28;88011;-78
2021/10/18 01:22:28;;;;;;;5.95;5.20;;;21.60;51.50;;;;;;5017054;28;88816;-78
2021/10/18 01:24:55;;;;;;;7.15;5.05;;;21.50;51.70;;;;;;5017295;28;87977;-78
2021/10/18 01:27:22;;;;;;;6.97;4.80;;;21.60;52.00;;;;;;5015530;28;87931;-78
2021/10/18 01:29:49;;;;;;;6.25;5.53;;;21.50;52.10;;;;;;5016924;28;88832;-78
2021/10/18 01:32:16;;;;;;;6.68;5.68;;;21.60;52.30;;;;;;5015630;28;88355;-78
2021/10/18 01:34:44;;;;;;;5.53;5.03;;;21.60;52.20;;;;;;4998771;28;89390;-78
2021/10/18 01:37:11;;;;;;;6.03;5.05;;;21.60;52.10;;;;;;5012997;28;90490;-78
2021/10/18 01:39:38;;;;;;;8.60;5.95;;;21.50;52.50;;;;;;5014696;28;95488;-76
2021/10/18 01:42:05;;;;;;;10.10;5.78;;;21.50;52.10;;;;;;5015590;28;89056;-77
2021/10/18 01:44:32;;;;;;;8.48;6.18;;;21.60;51.90;;;;;;5016323;28;87980;-76
2021/10/18 01:46:59;;;;;;;6.30;5.47;;;21.60;52.00;;;;;;5015057;28;94924;-76
2021/10/18 01:49:26;;;;;;;7.43;6.35;;;21.50;52.00;;;;;;5016195;28;88711;-76
2021/10/18 01:51:53;;;;;;;7.10;6.40;;;21.50;51.80;;;;;;5016076;28;88462;-76
2021/10/18 01:54:20;;;;;;;7.00;5.47;;;21.50;51.50;;;;;;5016776;28;87886;-76
2021/10/18 01:56:47;;;;;;;8.65;6.03;;;21.50;51.20;;;;;;5016360;28;89893;-76
2021/10/18 01:59:14;;;;;;;9.05;5.65;;;21.50;51.10;;;;;;5019611;28;90104;-76
2021/10/18 02:01:41;;;;;;;8.32;5.63;;;21.50;51.40;;;;;;5018583;28;89411;-76
2021/10/18 02:04:08;;;;;;;7.40;5.35;;;21.50;51.70;;;;;;5020403;28;88389;-77
2021/10/18 02:06:35;;;;;;;4.78;4.38;;;21.50;52.10;;;;;;5019332;28;88548;-76
2021/10/18 02:09:02;;;;;;;8.43;5.40;;;21.50;52.30;;;;;;5017700;28;91381;-76
2021/10/18 02:11:29;;;;;;;5.43;4.93;;;21.50;52.40;;;;;;5017694;28;91103;-76
2021/10/18 02:13:56;;;;;;;5.70;5.18;;;21.50;52.50;;;;;;5020086;28;88049;-76
2021/10/18 02:16:23;;;;;;;10.60;5.82;;;21.50;52.70;;;;;;5020235;28;87239;-76
2021/10/18 02:18:50;;;;;;;7.40;5.22;;;21.50;52.80;;;;;;5018282;28;88738;-76
2021/10/18 02:21:19;;;;;;;7.18;5.00;;;21.50;53.10;;;;;;5018567;28;88431;-77
2021/10/18 02:23:46;;;;;;;6.97;5.30;;;21.50;53.40;;;;;;5019504;28;89873;-76
2021/10/18 02:26:13;;;;;;;7.20;5.43;;;21.50;54.20;;;;;;5019768;28;88366;-76
2021/10/18 02:28:40;;;;;;;6.47;5.05;;;21.50;53.40;;;;;;5019374;28;88009;-76
2021/10/18 02:31:07;;;;;;;5.38;4.35;;;21.50;53.60;;;;;;5001213;28;108612;-76
2021/10/18 02:33:34;;;;;;;6.25;4.65;;;21.50;53.70;;;;;;5019334;28;87993;-77
2021/10/18 02:36:01;;;;;;;10.30;5.22;;;21.60;53.90;;;;;;5019006;28;88178;-76
2021/10/18 02:38:28;;;;;;;6.78;5.70;;;21.50;53.70;;;;;;5019173;28;90854;-76
2021/10/18 02:40:55;;;;;;;6.65;5.90;;;21.50;53.70;;;;;;5019685;28;88915;-76
2021/10/18 02:43:22;;;;;;;6.20;4.55;;;21.50;53.60;;;;;;5017201;28;89519;-77
2021/10/18 02:45:50;;;;;;;8.95;6.15;;;21.50;53.60;;;;;;5017925;28;88143;-77
2021/10/18 02:48:18;;;;;;;5.63;4.93;;;21.50;53.30;;;;;;5018430;28;89267;-76
2021/10/18 02:50:45;;;;;;;7.85;6.07;;;21.50;53.10;;;;;;5017927;28;91793;-76
2021/10/18 02:53:12;;;;;;;6.88;5.72;;;21.50;53.10;;;;;;5018493;28;88857;-76
2021/10/18 02:55:39;;;;;;;7.05;5.55;;;21.50;53.20;;;;;;5017455;28;88098;-76
2021/10/18 02:58:06;;;;;;;5.50;4.90;;;21.50;53.40;;;;;;5019489;28;88609;-76
2021/10/18 03:00:33;;;;;;;5.40;4.82;;;21.50;53.30;;;;;;5001140;28;91493;-76
2021/10/18 03:03:00;;;;;;;7.43;5.07;;;21.50;53.60;;;;;;5018753;28;88678;-76
2021/10/18 03:05:28;;;;;;;10.43;4.95;;;21.50;53.90;;;;;;5017704;28;87939;-76
2021/10/18 03:07:56;;;;;;;5.38;4.85;;;21.50;53.70;;;;;;5017385;28;88669;-76
2021/10/18 03:10:23;;;;;;;8.05;5.53;;;21.50;53.80;;;;;;5018688;28;89672;-76
2021/10/18 03:12:50;;;;;;;8.43;5.57;;;21.50;54.00;;;;;;5018089;28;88969;-76
2021/10/18 03:15:17;;;;;;;7.93;6.20;;;21.50;53.80;;;;;;5017590;28;89324;-76
2021/10/18 03:17:44;;;;;;;6.90;5.32;;;21.50;53.50;;;;;;5017379;28;88331;-76
2021/10/18 03:20:12;;;;;;;8.82;4.15;;;21.50;53.60;;;;;;5019166;28;91251;-76
2021/10/18 03:22:41;;;;;;;7.10;5.25;;;21.50;53.80;;;;;;5000584;28;89696;-76
2021/10/18 03:25:10;;;;;;;7.63;5.25;;;21.50;54.10;;;;;;5001429;28;88098;-77
2021/10/18 03:27:37;;;;;;;7.70;6.60;;;21.50;54.10;;;;;;5017342;28;91751;-76
2021/10/18 03:30:05;;;;;;;9.18;6.40;;;21.50;53.60;;;;;;5017051;28;111208;-76
2021/10/18 03:32:32;;;;;;;5.95;3.88;;;21.50;54.30;;;;;;5018816;28;88062;-76
2021/10/18 03:34:59;;;;;;;5.03;4.50;;;21.50;53.70;;;;;;5017307;28;90414;-77
2021/10/18 03:37:26;;;;;;;8.75;6.38;;;21.50;54.00;;;;;;5000774;28;93565;-76
2021/10/18 03:39:53;;;;;;;5.65;4.97;;;21.50;53.90;;;;;;5001058;28;91202;-76
2021/10/18 03:42:20;;;;;;;7.72;6.28;;;21.50;53.60;;;;;;5000588;28;87982;-76
2021/10/18 03:44:47;;;;;;;8.50;5.85;;;21.50;53.80;;;;;;5018887;28;88237;-76
2021/10/18 03:47:14;;;;;;;8.05;6.47;;;21.50;53.70;;;;;;5016859;28;91470;-76
2021/10/18 03:49:41;;;;;;;7.70;5.63;;;21.50;53.70;;;;;;5017097;28;88494;-78
2021/10/18 03:52:08;;;;;;;10.05;5.38;;;21.50;53.50;;;;;;5018134;28;103584;-76
2021/10/18 03:54:35;;;;;;;6.45;5.68;;;21.50;53.60;;;;;;5017252;28;90689;-76
2021/10/18 03:57:03;;;;;;;7.50;6.20;;;21.50;54.00;;;;;;5018917;28;88675;-76
2021/10/18 03:59:30;;;;;;;10.65;6.53;;;21.50;53.90;;;;;;5017154;28;88474;-75
2021/10/18 04:01:59;;;;;;;9.63;6.22;;;21.50;53.80;;;;;;5015945;28;89141;-77
2021/10/18 04:04:26;;;;;;;5.78;5.25;;;21.50;53.60;;;;;;5015605;28;90548;-75
2021/10/18 04:06:52;;;;;;;7.90;5.38;;;21.50;53.80;;;;;;5015638;28;91568;-76
2021/10/18 04:09:20;;;;;;;7.20;5.65;;;21.50;53.90;;;;;;5017336;28;88340;-76
2021/10/18 04:11:47;;;;;;;8.00;6.00;;;21.50;53.80;;;;;;5015662;28;88137;-76
2021/10/18 04:14:14;;;;;;;9.10;7.93;;;21.50;53.60;;;;;;5016549;28;88047;-77
2021/10/18 04:16:41;;;;;;;8.35;6.65;;;21.50;53.00;;;;;;5021638;28;90906;-76
2021/10/18 04:19:08;;;;;;;9.65;6.53;;;21.50;52.50;;;;;;5037598;28;87317;-76
2021/10/18 04:21:35;;;;;;;6.32;5.05;;;21.50;52.40;;;;;;5035328;28;90092;-76
2021/10/18 04:24:02;;;;;;;7.30;5.82;;;21.50;52.70;;;;;;5037461;28;88148;-76
2021/10/18 04:26:30;;;;;;;10.32;6.97;;;21.50;53.10;;;;;;5036821;28;91219;-76
2021/10/18 04:28:57;;;;;;;9.07;6.55;;;21.40;52.90;;;;;;5036673;27;89271;-76
2021/10/18 04:31:29;;;;;;;9.40;6.13;;;21.40;52.60;;;;;;5019775;28;88339;-76
2021/10/18 04:34:00;;;;;;;8.38;7.15;;;21.40;52.50;;;;;;5036114;28;90896;-79
2021/10/18 04:36:28;;;;;;;11.75;6.65;;;21.40;52.70;;;;;;5023315;28;88383;-77
2021/10/18 04:38:56;;;;;;;10.13;6.60;;;21.40;52.20;;;;;;5022405;28;88024;-77
2021/10/18 04:41:23;;;;;;;6.32;5.72;;;21.40;52.30;;;;;;5034085;28;88025;-76
2021/10/18 04:43:50;;;;;;;10.18;7.60;;;21.40;52.60;;;;;;5033333;28;93810;-77
2021/10/18 04:46:17;;;;;;;9.48;7.50;;;21.40;52.70;;;;;;5033314;28;88108;-76
2021/10/18 04:48:44;;;;;;;9.07;8.07;;;21.40;52.20;;;;;;5032896;28;88675;-77
2021/10/18 04:51:11;;;;;;;12.70;7.40;;;21.40;51.70;;;;;;5027997;28;88670;-77
2021/10/18 04:53:38;;;;;;;8.98;6.85;;;21.40;51.90;;;;;;5017893;28;88104;-76
2021/10/18 04:56:05;;;;;;;10.00;7.55;;;21.30;52.20;;;;;;5018961;28;88714;-76
2021/10/18 04:58:32;;;;;;;10.75;7.50;;;21.30;52.40;;;;;;5017601;28;88514;-77
2021/10/18 05:00:59;;;;;;;12.65;8.05;;;21.30;52.20;;;;;;5018074;28;88046;-76
2021/10/18 05:03:26;;;;;;;9.32;8.40;;;21.40;52.50;;;;;;4999259;28;89239;-76
2021/10/18 05:05:55;;;;;;;9.65;7.13;;;21.30;52.50;;;;;;5017037;28;88544;-77
2021/10/18 05:08:29;;;;;;;14.00;8.73;;;21.30;52.60;;;;;;5018401;28;87792;-76
2021/10/18 05:10:56;;;;;;;9.38;7.60;;;21.30;52.80;;;;;;5017267;28;87897;-77
2021/10/18 05:13:23;;;;;;;13.68;9.48;;;21.30;52.20;;;;;;5017667;28;87936;-79
2021/10/18 05:15:52;;;;;;;8.80;6.72;;;21.30;52.40;;;;;;5015796;28;89549;-76
2021/10/18 05:18:20;;;;;;;10.60;7.65;;;21.30;52.30;;;;;;5017140;28;95873;-77
2021/10/18 05:20:49;;;;;;;9.02;7.63;;;21.40;52.40;;;;;;5015953;28;88400;-76
2021/10/18 05:23:17;;;;;;;15.02;10.20;;;21.50;52.30;;;;;;5017163;28;88255;-76
2021/10/18 05:25:44;;;;;;;13.00;10.02;;;21.50;52.30;;;;;;5016211;28;90616;-76
2021/10/18 05:28:11;;;;;;;12.25;9.27;;;21.50;52.00;;;;;;5014861;28;91966;-76
2021/10/18 05:30:38;;;;;;;14.68;9.88;;;21.50;51.90;;;;;;5011748;28;91659;-76
2021/10/18 05:33:06;;;;;;;15.20;10.45;;;21.50;52.30;;;;;;4997242;28;91547;-76
2021/10/18 05:35:33;;;;;;;12.48;9.70;;;21.50;50.80;;;;;;4995281;28;88527;-76
2021/10/18 05:38:01;;;;;;;13.48;8.55;;;21.50;50.10;;;;;;4995902;28;88474;-76
2021/10/18 05:40:28;;;;;;;13.73;10.00;;;21.60;50.60;;;;;;5002963;28;89104;-76
2021/10/18 05:42:55;;;;;;;8.75;7.20;;;21.60;51.10;;;;;;4997634;28;91168;-77
2021/10/18 05:45:22;;;;;;;8.88;7.32;;;21.60;51.30;;;;;;5016158;28;103269;-77
2021/10/18 05:47:53;;;;;;;12.82;9.90;;;21.60;52.10;;;;;;5016913;28;88455;-77
2021/10/18 05:50:21;;;;;;;11.27;8.57;;;21.50;52.00;;;;;;5016972;28;87957;-77
2021/10/18 05:52:48;;;;;;;12.77;10.10;;;21.60;52.10;;;;;;5015261;28;90500;-77
2021/10/18 05:55:16;;;;;;;10.38;8.25;;;21.60;51.90;;;;;;5014804;28;88946;-77
2021/10/18 05:57:52;;;;;;;13.07;11.07;;;21.60;51.80;;;;;;5016506;28;88448;-76
2021/10/18 06:00:20;;;;;;;12.20;10.23;;;21.60;51.40;;;;;;5015942;28;88542;-75
2021/10/18 06:02:48;;;;;;;12.02;9.80;;;21.60;51.60;;;;;;5013966;28;88450;-75
2021/10/18 06:05:16;;;;;;;13.85;10.55;;;21.60;51.40;;;;;;5015336;28;99164;-79
2021/10/18 06:07:43;;;;;;;11.23;9.40;;;21.60;51.20;;;;;;5014072;28;93959;-79
2021/10/18 06:10:11;;;;;;;10.75;8.35;;;21.60;50.50;;;;;;5007495;28;90951;-76
2021/10/18 06:12:39;;;;;;;13.13;10.48;;;21.60;49.90;;;;;;5003046;28;88907;-77
2021/10/18 06:15:08;;;;;;;10.25;8.57;;;21.60;50.50;;;;;;5013719;28;91629;-79
2021/10/18 06:17:35;;;;;;;11.65;9.68;;;21.60;50.30;;;;;;5016312;28;89048;-76
2021/10/18 06:20:04;;;;;;;12.38;9.35;;;21.60;51.20;;;;;;5007650;28;88447;-76
2021/10/18 06:22:31;;;;;;;14.63;11.02;;;21.60;51.60;;;;;;4997999;28;89164;-77
2021/10/18 06:24:58;;;;;;;12.65;8.23;;;21.60;51.70;;;;;;5015322;28;88740;-77
2021/10/18 06:27:25;;;;;;;12.60;8.95;;;21.60;51.80;;;;;;5014193;28;93209;-78
2021/10/18 06:29:52;;;;;;;115.43;58.78;;;21.60;52.30;;;;;;5013912;28;89119;-78
2021/10/18 06:32:19;;;;;;;13.10;10.15;;;21.60;52.40;;;;;;4997779;28;88807;-78
2021/10/18 06:34:46;;;;;;;11.35;8.63;;;21.60;52.80;;;;;;5015045;28;88876;-77
2021/10/18 06:37:13;;;;;;;10.95;8.73;;;21.60;53.20;;;;;;5009909;28;88492;-77
2021/10/18 06:39:40;;;;;;;9.15;7.65;;;21.60;53.40;;;;;;5016068;28;87883;-77
2021/10/18 06:42:08;;;;;;;10.68;8.80;;;21.60;53.30;;;;;;5016223;28;88270;-77
2021/10/18 06:44:35;;;;;;;11.52;9.05;;;21.70;53.80;;;;;;5015043;28;88958;-77
2021/10/18 06:47:02;;;;;;;9.73;8.20;;;21.70;53.60;;;;;;5018199;28;87517;-77
2021/10/18 06:49:29;;;;;;;20.83;18.58;;;21.70;53.60;;;;;;5000810;28;89554;-77
2021/10/18 06:51:57;;;;;;;12.15;10.95;;;21.70;54.10;;;;;;5018209;28;88560;-77
2021/10/18 06:54:24;;;;;;;17.05;15.45;;;21.60;53.10;;;;;;5017827;28;89275;-78
2021/10/18 06:56:52;;;;;;;10.45;8.65;;;21.70;53.20;;;;;;5018157;28;89143;-77
2021/10/18 06:59:19;;;;;;;13.18;11.15;;;21.70;53.10;;;;;;5018692;28;89069;-77
2021/10/18 07:01:46;;;;;;;13.25;9.57;;;21.70;52.50;;;;;;5032606;27;88854;-78
2021/10/18 07:04:16;;;;;;;12.13;10.90;;;21.70;52.20;;;;;;4999285;28;88799;-78
2021/10/18 07:06:43;;;;;;;8.25;6.88;;;21.70;52.40;;;;;;4997853;28;89064;-77
2021/10/18 07:09:10;;;;;;;17.27;14.85;;;21.70;52.80;;;;;;4999368;28;88838;-78
2021/10/18 07:11:37;;;;;;;11.32;10.10;;;21.80;53.10;;;;;;5009412;28;88513;-77
2021/10/18 07:14:04;;;;;;;17.13;15.32;;;21.80;53.00;;;;;;5015040;28;92622;-77
2021/10/18 07:16:31;;;;;;;20.40;12.15;;;21.80;52.80;;;;;;5016112;28;108745;-77
2021/10/18 07:18:58;;;;;;;12.23;8.02;;;21.80;52.90;;;;;;5016324;28;90968;-77
2021/10/18 07:21:25;;;;;;;8.43;7.53;;;21.80;52.90;;;;;;5018745;28;88082;-77
2021/10/18 07:23:54;;;;;;;12.15;10.27;;;21.80;53.00;;;;;;5018916;28;89182;-77
2021/10/18 07:26:22;;;;;;;8.93;7.97;;;21.80;52.80;;;;;;5016517;28;89181;-77
2021/10/18 07:28:49;;;;;;;10.05;7.53;;;21.80;52.40;;;;;;5017465;28;89028;-77
2021/10/18 07:31:17;;;;;;;10.88;7.25;;;21.80;52.60;;;;;;5000866;28;90297;-77
2021/10/18 07:33:45;;;;;;;7.55;6.72;;;21.80;52.60;;;;;;5017241;28;88822;-77
2021/10/18 07:36:21;;;;;;;12.60;9.68;;;21.90;52.80;;;;;;5018653;28;88493;-77
2021/10/18 07:38:49;;;;;;;11.75;8.15;;;21.80;52.50;;;;;;5017396;28;88078;-77
2021/10/18 07:41:18;;;;;;;9.98;8.98;;;21.90;52.20;;;;;;5017021;28;90592;-77
2021/10/18 07:43:46;;;;;;;14.05;9.27;;;21.90;51.90;;;;;;5017983;28;89415;-77
2021/10/18 07:46:15;;;;;;;10.55;8.65;;;21.90;51.80;;;;;;5016931;28;92260;-77
2021/10/18 07:48:42;;;;;;;13.32;9.70;;;21.90;51.80;;;;;;5017723;28;87960;-77
2021/10/18 07:51:09;;;;;;;10.20;8.43;;;21.90;51.80;;;;;;4999799;28;94248;-77
2021/10/18 07:53:37;;;;;;;13.40;9.27;;;21.90;51.60;;;;;;5018178;28;88154;-77
2021/10/18 07:56:04;;;;;;;11.18;8.93;;;21.90;51.50;;;;;;5018353;28;88713;-78
2021/10/18 07:58:31;;;;;;;12.95;9.93;;;22.00;51.40;;;;;;5018108;28;87975;-77
2021/10/18 08:00:58;;;;;;;9.63;7.53;;;22.00;51.20;;;;;;5016786;28;90471;-79
2021/10/18 08:03:25;;;;;;;11.55;9.13;;;22.00;51.10;;;;;;5018097;28;88784;-79
2021/10/18 08:05:52;;;;;;;12.95;10.73;;;22.00;51.50;;;;;;5017693;28;96453;-79
2021/10/18 08:08:28;;;;;;;13.77;10.75;;;22.00;51.70;;;;;;5017223;28;88904;-76
2021/10/18 08:10:55;;;;;;;8.68;7.18;;;22.00;51.60;;;;;;5016940;28;89989;-78
2021/10/18 08:13:22;;;;;;;11.02;9.13;;;22.00;51.40;;;;;;5016870;28;88838;-76
2021/10/18 08:15:49;;;;;;;8.98;6.45;;;22.00;51.90;;;;;;5016253;28;88389;-76
2021/10/18 08:18:17;;;;;;;9.50;7.38;;;22.10;52.20;;;;;;4999718;28;92795;-78
2021/10/18 08:20:44;;;;;;;11.23;8.73;;;22.10;52.30;;;;;;5017012;28;88430;-76
2021/10/18 08:23:12;;;;;;;9.48;8.20;;;22.10;52.30;;;;;;5017940;28;88823;-77
2021/10/18 08:25:40;;;;;;;8.70;7.18;;;22.10;52.30;;;;;;5016645;28;88447;-76
2021/10/18 08:28:07;;;;;;;8.70;7.78;;;22.10;52.30;;;;;;5017738;28;100337;-77
2021/10/18 08:30:34;;;;;;;8.63;5.90;;;22.10;51.90;;;;;;5017386;28;88110;-76
2021/10/18 08:33:02;;;;;;;12.43;9.88;;;22.10;52.10;;;;;;5015790;28;89643;-76
2021/10/18 08:35:29;;;;;;;12.95;8.50;;;22.10;52.00;;;;;;5017187;28;88601;-77
2021/10/18 08:44:13;;;;;;;10.57;9.57;;;22.20;51.70;;;;;;5009083;28;88746;-78
2021/10/18 08:46:18;;;;;;;9.95;8.48;;;22.20;51.50;;;;;;5017010;28;88377;-78
2021/10/18 08:48:53;;;;;;;14.25;9.68;;;22.20;51.00;;;;;;5014473;28;89517;-78
2021/10/18 08:51:21;;;;;;;9.82;8.05;;;22.20;51.90;;;;;;4996918;28;87362;-78
2021/10/18 08:53:49;;;;;;;9.80;7.45;;;22.20;51.00;;;;;;4995752;28;89944;-77
2021/10/18 08:56:16;;;;;;;9.02;6.30;;;22.20;51.00;;;;;;4995985;28;88953;-78
2021/10/18 08:58:43;;;;;;;9.50;7.30;;;22.30;51.50;;;;;;4996842;28;88738;-77
2021/10/18 09:01:11;;;;;;;9.85;7.63;;;22.30;51.60;;;;;;4988520;28;90500;-78
2021/10/18 09:03:39;;;;;;;12.85;8.32;;;22.30;51.40;;;;;;5017056;28;88817;-77
2021/10/18 09:06:14;;;;;;;15.32;8.20;;;22.30;51.30;;;;;;5017013;28;88474;-77
2021/10/18 09:08:44;;;;;;;10.25;8.52;;;22.30;50.90;;;;;;5015487;28;88011;-77
2021/10/18 09:11:15;;;;;;;8.25;7.30;;;22.30;51.00;;;;;;5016866;28;88779;-78
2021/10/18 09:13:51;;;;;;;10.05;7.88;;;22.40;51.00;;;;;;5016421;28;88696;-77
2021/10/18 09:16:27;;;;;;;10.27;8.45;;;22.40;50.70;;;;;;5017318;28;88480;-77
2021/10/18 09:19:16;;;;;;;9.07;8.05;;;22.40;50.80;;;;;;5015672;28;89455;-78
2021/10/18 09:21:48;;;;;;;6.85;5.95;;;22.40;50.30;;;;;;5010484;28;88929;-76
2021/10/18 09:24:30;;;;;;;9.25;8.27;;;22.40;50.70;;;;;;5012660;28;90493;-79
2021/10/18 09:26:59;;;;;;;10.57;8.20;;;22.40;50.50;;;;;;5015868;28;89226;-76
2021/10/18 09:29:47;;;;;;;11.98;8.77;;;22.40;50.80;;;;;;5014507;28;88251;-76
2021/10/18 09:32:18;;;;;;;7.10;6.43;;;22.50;50.40;;;;;;5012801;28;88107;-77
2021/10/18 09:34:46;;;;;;;11.68;8.50;;;22.50;50.70;;;;;;5007735;28;89101;-76
2021/10/18 09:37:15;;;;;;;13.20;9.07;;;22.50;50.70;;;;;;5015554;28;88690;-76
2021/10/18 09:39:51;;;;;;;8.35;6.43;;;22.50;50.30;;;;;;5010201;28;88479;-76
2021/10/18 09:42:19;;;;;;;9.55;5.75;;;22.50;50.40;;;;;;4998414;28;89428;-76
2021/10/18 10:56:19;;;;;;;10.13;6.78;;;22.90;50.00;;;;;;4991972;28;88595;-78
2021/10/18 11:01:38;;;;;;;7.70;6.32;;;23.00;49.00;;;;;;4994265;28;88957;-78
2021/10/18 11:04:34;;;;;;;10.50;7.80;;;23.00;48.50;;;;;;4998924;28;88770;-78
2021/10/18 11:07:07;;;;;;;9.73;6.00;;;23.10;48.30;;;;;;4998855;28;88698;-78
2021/10/18 11:09:40;;;;;;;9.32;6.47;;;23.10;48.40;;;;;;4998566;28;88355;-78
2021/10/18 11:12:29;;;;;;;2.35;2.03;;;23.10;48.30;;;;;;4997689;28;88054;-78
2021/10/18 11:14:56;;;;;;;4.55;3.55;;;23.10;48.20;;;;;;4983975;28;89499;-78
2021/10/18 11:17:28;;;;;;;9.65;7.22;;;23.20;48.20;;;;;;5003101;28;102930;-78
2021/10/18 11:20:17;;;;;;;9.40;7.68;;;23.20;47.70;;;;;;4999393;28;89709;-78
2021/10/18 11:22:48;;;;;;;10.60;7.82;;;23.20;47.20;;;;;;4998078;28;88129;-78
2021/10/18 11:25:21;;;;;;;9.07;7.00;;;23.20;47.00;;;;;;4998810;28;88722;-78
2021/10/18 11:28:00;;;;;;;7.23;6.37;;;23.20;46.90;;;;;;4997344;28;88575;-78
2021/10/18 11:30:30;;;;;;;11.75;7.55;;;23.30;46.90;;;;;;5001402;28;88309;-78
2021/10/18 11:33:10;;;;;;;11.82;8.70;;;23.20;46.70;;;;;;5027654;27;90711;-78
2021/10/18 11:35:37;;;;;;;10.48;7.43;;;23.30;46.30;;;;;;5018891;28;88800;-78
2021/10/18 11:38:12;;;;;;;7.82;6.55;;;23.30;46.20;;;;;;5007029;28;90476;-79
2021/10/18 11:40:44;;;;;;;10.73;6.78;;;23.30;46.30;;;;;;4997967;28;90317;-79
2021/10/18 11:43:23;;;;;;;8.23;6.45;;;23.30;46.20;;;;;;4997857;28;88077;-76
2021/10/18 11:45:53;;;;;;;9.68;7.35;;;23.30;46.20;;;;;;4998148;28;88891;-77
2021/10/18 11:48:25;;;;;;;10.15;7.47;;;23.30;46.30;;;;;;4998763;28;88298;-80
2021/10/18 11:51:01;;;;;;;11.43;9.40;;;23.40;46.20;;;;;;4995768;28;88331;-78
2021/10/18 11:53:33;;;;;;;2.72;2.50;;;23.30;46.00;;;;;;5009908;28;91010;-78
2021/10/18 11:56:03;;;;;;;3.00;2.67;;;23.30;46.20;;;;;;4996715;28;90920;-78
2021/10/18 11:58:38;;;;;;;4.18;3.53;;;23.30;46.10;;;;;;4978598;28;90818;-77
2021/10/18 12:01:09;;;;;;;7.68;4.97;;;23.40;46.00;;;;;;4995147;28;89653;-78
2021/10/18 12:03:37;;;;;;;2.88;2.38;;;23.40;45.80;;;;;;4996402;28;88152;-77
2021/10/18 12:06:10;;;;;;;8.48;4.78;;;23.40;45.90;;;;;;4994653;28;89659;-77
2021/10/18 12:08:39;;;;;;;9.30;7.07;;;23.40;45.80;;;;;;4992091;28;90070;-78
2021/10/18 12:11:08;;;;;;;6.75;5.22;;;23.40;45.60;;;;;;4999014;28;92826;-77
2021/10/18 12:13:36;;;;;;;4.53;3.92;;;23.40;45.40;;;;;;4998107;28;88368;-78
2021/10/18 12:16:03;;;;;;;10.73;7.95;;;23.40;45.30;;;;;;4998358;28;89022;-78
2021/10/18 12:18:48;;;;;;;4.90;4.20;;;23.50;45.20;;;;;;4998122;28;88825;-78
2021/10/18 12:21:21;;;;;;;6.30;3.58;;;23.50;45.10;;;;;;4998232;28;87970;-78
2021/10/18 12:23:51;;;;;;;5.03;4.13;;;23.50;45.10;;;;;;4998351;28;87784;-78
2021/10/18 12:26:27;;;;;;;7.20;5.30;;;23.50;44.90;;;;;;4997953;28;88048;-78
2021/10/18 12:28:55;;;;;;;8.57;7.00;;;23.50;44.70;;;;;;4995991;28;92372;-78
2021/10/18 12:31:41;;;;;;;4.85;3.53;;;23.50;44.60;;;;;;4995865;28;90017;-78
2021/10/18 12:34:08;;;;;;;7.40;6.13;;;23.50;44.60;;;;;;4998110;28;88360;-78
2021/10/18 12:37:05;;;;;;;6.30;4.10;;;23.50;44.60;;;;;;4999960;28;88933;-78
2021/10/18 12:39:46;;;;;;;6.60;5.50;;;23.50;44.40;;;;;;5013521;28;89118;-78
2021/10/18 12:42:26;;;;;;;7.47;5.95;;;23.50;44.60;;;;;;5013758;28;88424;-78
2021/10/18 12:45:11;;;;;;;8.13;6.85;;;23.50;44.40;;;;;;5017305;28;88124;-78
2021/10/18 12:47:40;;;;;;;13.55;6.55;;;23.50;44.30;;;;;;5010856;28;88766;-78
2021/10/18 12:50:15;;;;;;;8.60;6.55;;;23.50;44.40;;;;;;5006749;28;88734;-79
2021/10/18 12:53:05;;;;;;;5.70;5.15;;;23.50;44.30;;;;;;5032943;27;88005;-78
2021/10/18 12:55:36;;;;;;;8.40;5.60;;;23.50;44.10;;;;;;5010144;28;88429;-78
2021/10/18 12:58:18;;;;;;;6.68;5.43;;;23.60;44.30;;;;;;5011270;28;89449;-78
2021/10/18 13:00:45;;;;;;;7.78;5.60;;;23.60;44.20;;;;;;4995915;28;89496;-78
2021/10/18 13:03:12;;;;;;;5.40;4.70;;;23.50;44.20;;;;;;5029641;28;96418;-78
2021/10/18 13:05:41;;;;;;;6.32;5.57;;;23.60;44.30;;;;;;5014589;28;88310;-78
2021/10/18 13:08:09;;;;;;;8.43;5.65;;;23.50;44.20;;;;;;5015915;28;91806;-78
2021/10/18 13:10:38;;;;;;;4.63;4.22;;;23.60;44.20;;;;;;5019521;28;88945;-78
2021/10/18 13:13:16;;;;;;;7.63;5.72;;;23.50;44.20;;;;;;5034009;28;89397;-78
2021/10/18 13:15:45;;;;;;;3.83;3.33;;;23.60;44.20;;;;;;5014916;28;88333;-79
2021/10/18 13:18:14;;;;;;;7.88;6.88;;;23.60;44.30;;;;;;5010341;28;92182;-78
2021/10/18 13:20:45;;;;;;;8.65;5.97;;;23.60;44.20;;;;;;5014070;28;88622;-78
2021/10/18 13:23:15;;;;;;;4.68;3.63;;;23.60;44.20;;;;;;5013020;28;88864;-78
2021/10/18 13:25:44;;;;;;;6.47;4.93;;;23.60;44.20;;;;;;5015332;28;89608;-78
2021/10/18 13:28:12;;;;;;;5.40;4.85;;;23.60;44.20;;;;;;5025269;28;105848;-78
2021/10/18 13:30:39;;;;;;;8.02;5.15;;;23.60;44.20;;;;;;5021119;28;91068;-77
2021/10/18 13:33:07;;;;;;;7.18;4.63;;;23.60;44.20;;;;;;5016013;28;88267;-77
2021/10/18 13:35:34;;;;;;;6.25;5.30;;;23.60;44.20;;;;;;5014207;28;90396;-77
2021/10/18 13:38:03;;;;;;;4.03;3.33;;;23.60;44.10;;;;;;5017847;28;88793;-77
2021/10/18 13:40:33;;;;;;;6.13;5.13;;;23.60;44.10;;;;;;5027547;28;88446;-77
2021/10/18 13:43:00;;;;;;;5.22;4.65;;;23.60;44.10;;;;;;5016711;28;88005;-77
2021/10/18 13:45:27;;;;;;;6.75;4.03;;;23.60;44.00;;;;;;5017037;28;88213;-77
2021/10/18 13:47:54;;;;;;;3.35;2.92;;;23.60;44.10;;;;;;5006369;28;90440;-77
2021/10/18 13:50:22;;;;;;;5.78;4.82;;;23.60;44.20;;;;;;5015226;28;89186;-79
2021/10/18 13:52:53;;;;;;;6.57;5.20;;;23.60;44.90;;;;;;5019047;28;88468;-77
2021/10/18 13:55:25;;;;;;;5.53;4.47;;;23.60;44.10;;;;;;5014884;28;87917;-77
2021/10/18 13:57:53;;;;;;;5.57;4.50;;;23.60;44.10;;;;;;5014763;28;91713;-77
2021/10/18 14:00:20;;;;;;;6.82;5.35;;;23.60;44.10;;;;;;5020385;28;88494;-77
2021/10/18 14:02:47;;;;;;;8.63;4.53;;;23.60;44.10;;;;;;5028349;28;88107;-77
2021/10/18 14:05:16;;;;;;;7.88;5.63;;;23.60;44.10;;;;;;5021079;28;88069;-77
2021/10/18 14:07:43;;;;;;;4.47;2.83;;;23.60;44.00;;;;;;5024072;28;88705;-77
2021/10/18 14:10:11;;;;;;;6.97;5.85;;;23.60;44.00;;;;;;5023239;27;88449;-77
2021/10/18 14:12:39;;;;;;;5.70;4.13;;;23.60;43.90;;;;;;5012728;28;111512;-77